Time;durP1;ratioP1;P1;durP2;ratioP2;P2;SDS_P1;SDS_P2;PMS_P1;PMS_P2;Temp;Humidity;BMP_temperature;BMP_pressure;BME280_temperature;BME280_humidity;BME280_pressure;Samples;Min_cycle;Max_cycle;Signal;HPM_P1;HPM_P2
2021/05/31 00:02:16;;;;;;;4.20;3.43;;;13.90;99.90;;;;;;5096106;28;20207;-66
2021/05/31 00:04:42;;;;;;;5.97;3.30;;;13.90;99.90;;;;;;5096296;28;20259;-66
2021/05/31 00:07:13;;;;;;;3.63;3.33;;;13.80;99.90;;;;;;5096645;28;20433;-68
2021/05/31 00:09:40;;;;;;;3.50;3.20;;;13.80;99.90;;;;;;5096166;28;20539;-68
2021/05/31 00:12:09;;;;;;;4.53;3.10;;;13.80;99.90;;;;;;5095832;28;20480;-66
2021/05/31 00:14:35;;;;;;;4.60;4.20;;;13.80;99.90;;;;;;5096054;28;20413;-68
2021/05/31 00:17:01;;;;;;;3.73;3.43;;;13.90;99.90;;;;;;5096377;28;20522;-66
2021/05/31 00:19:27;;;;;;;4.03;3.73;;;14.00;99.90;;;;;;5094753;28;20176;-68
2021/05/31 00:21:53;;;;;;;4.57;4.17;;;14.00;99.90;;;;;;5096316;28;20944;-66
2021/05/31 00:24:19;;;;;;;4.40;4.00;;;14.00;99.90;;;;;;5095928;28;20401;-67
2021/05/31 00:26:45;;;;;;;4.40;4.00;;;14.00;99.90;;;;;;5095641;28;20241;-67
2021/05/31 00:29:11;;;;;;;4.20;3.83;;;14.00;99.90;;;;;;5095804;28;20424;-68
2021/05/31 00:31:37;;;;;;;4.30;3.90;;;14.00;99.90;;;;;;5096071;28;20437;-67
2021/05/31 00:34:03;;;;;;;5.50;4.40;;;14.00;99.90;;;;;;5095639;28;20681;-67
2021/05/31 00:36:29;;;;;;;3.87;3.47;;;13.90;99.90;;;;;;5095940;28;20443;-66
2021/05/31 00:38:55;;;;;;;3.97;3.60;;;13.90;99.90;;;;;;5095559;28;20493;-67
2021/05/31 00:41:22;;;;;;;3.27;3.07;;;13.80;99.90;;;;;;5095475;28;21113;-66
2021/05/31 00:43:48;;;;;;;4.40;4.00;;;13.80;99.90;;;;;;5095485;28;20405;-68
2021/05/31 00:46:14;;;;;;;4.30;3.33;;;13.80;99.90;;;;;;5095703;28;20407;-69
2021/05/31 00:48:40;;;;;;;5.70;3.90;;;13.80;99.90;;;;;;5095431;28;20428;-69
2021/05/31 00:51:08;;;;;;;4.13;3.73;;;13.70;99.90;;;;;;5095231;28;20240;-66
2021/05/31 00:53:34;;;;;;;4.30;3.90;;;13.70;99.90;;;;;;5093990;28;20517;-66
2021/05/31 00:56:00;;;;;;;4.50;4.10;;;13.70;99.90;;;;;;5095361;28;20996;-66
2021/05/31 00:58:29;;;;;;;3.37;3.07;;;13.60;99.90;;;;;;5095343;28;20434;-67
2021/05/31 01:00:56;;;;;;;4.43;4.03;;;13.60;99.90;;;;;;5095306;28;20418;-67
2021/05/31 01:03:23;;;;;;;3.93;3.40;;;13.60;99.90;;;;;;5095176;28;20930;-68
2021/05/31 01:05:49;;;;;;;4.53;3.70;;;13.60;99.90;;;;;;5095007;28;20483;-69
2021/05/31 01:08:20;;;;;;;8.03;3.50;;;13.60;99.90;;;;;;5093734;28;20428;-67
2021/05/31 01:10:58;;;;;;;3.70;3.40;;;13.70;99.90;;;;;;5093489;28;20431;-66
2021/05/31 01:13:48;;;;;;;4.17;3.77;;;13.60;99.90;;;;;;5094935;28;20467;-66
2021/05/31 01:16:21;;;;;;;4.30;3.87;;;13.60;99.90;;;;;;5095077;28;20440;-66
2021/05/31 01:18:49;;;;;;;3.43;3.13;;;13.60;99.90;;;;;;5093459;28;20827;-66
2021/05/31 01:22:00;;;;;;;3.70;3.40;;;13.60;99.90;;;;;;5095036;28;20436;-68
2021/05/31 01:24:50;;;;;;;4.13;3.50;;;13.60;99.90;;;;;;5094889;28;20464;-66
2021/05/31 01:27:24;;;;;;;4.87;4.13;;;13.60;99.90;;;;;;5095348;28;20528;-66
2021/05/31 01:30:00;;;;;;;3.40;3.07;;;13.50;99.90;;;;;;5094606;28;20416;-66
2021/05/31 01:32:33;;;;;;;4.27;3.63;;;13.50;99.90;;;;;;5094606;28;20492;-66
2021/05/31 01:35:03;;;;;;;4.50;3.23;;;13.50;99.90;;;;;;5094612;28;20858;-66
2021/05/31 01:37:29;;;;;;;3.77;3.33;;;13.40;99.90;;;;;;5094440;28;20405;-66
2021/05/31 01:40:00;;;;;;;3.60;3.30;;;13.40;99.90;;;;;;5093094;28;20401;-66
2021/05/31 01:42:26;;;;;;;3.10;2.70;;;13.40;99.90;;;;;;5094470;28;20412;-66
2021/05/31 01:44:54;;;;;;;2.73;2.53;;;13.50;99.90;;;;;;5093100;28;20409;-67
2021/05/31 01:47:20;;;;;;;2.70;2.23;;;13.30;99.90;;;;;;5094867;28;20180;-69
2021/05/31 01:49:47;;;;;;;3.23;2.90;;;13.30;99.90;;;;;;5094247;28;20408;-69
2021/05/31 01:52:13;;;;;;;2.80;2.60;;;13.20;99.90;;;;;;5094594;28;20472;-66
2021/05/31 01:54:40;;;;;;;2.67;2.47;;;13.20;99.90;;;;;;5093038;28;20409;-67
2021/05/31 01:57:07;;;;;;;2.70;2.50;;;13.20;99.90;;;;;;5094585;28;20433;-68
2021/05/31 01:59:34;;;;;;;3.03;2.73;;;13.20;99.90;;;;;;5092913;28;20417;-66
2021/05/31 02:02:00;;;;;;;4.00;3.10;;;13.10;99.90;;;;;;5094421;28;20539;-67
2021/05/31 02:04:26;;;;;;;3.97;3.57;;;13.00;99.90;;;;;;5094080;28;20401;-67
2021/05/31 02:06:52;;;;;;;3.23;2.93;;;13.00;99.90;;;;;;5094416;28;20854;-67
2021/05/31 02:09:22;;;;;;;2.97;2.67;;;13.00;99.90;;;;;;5094101;28;20206;-68
2021/05/31 02:12:10;;;;;;;2.97;2.73;;;13.00;99.90;;;;;;5093800;28;20452;-68
2021/05/31 02:15:00;;;;;;;3.40;3.00;;;13.00;99.90;;;;;;5092733;28;20421;-68
2021/05/31 02:17:41;;;;;;;3.17;2.90;;;12.90;99.90;;;;;;5094025;28;20409;-66
2021/05/31 02:20:10;;;;;;;3.47;3.17;;;12.80;99.90;;;;;;5092048;28;20431;-67
2021/05/31 02:22:57;;;;;;;3.80;3.17;;;12.90;99.90;;;;;;5092535;28;20412;-69
2021/05/31 02:25:23;;;;;;;3.90;3.60;;;13.00;99.90;;;;;;5092379;28;20437;-69
2021/05/31 02:27:50;;;;;;;3.80;3.50;;;12.90;99.90;;;;;;5093770;28;20456;-69
2021/05/31 02:30:17;;;;;;;3.47;3.17;;;12.90;99.90;;;;;;5093787;28;20482;-68
2021/05/31 02:32:58;;;;;;;4.10;3.70;;;12.90;99.90;;;;;;5092398;28;20495;-69
2021/05/31 02:35:25;;;;;;;3.90;3.60;;;12.90;99.90;;;;;;5093684;28;20840;-67
2021/05/31 02:37:51;;;;;;;4.07;3.67;;;12.90;99.90;;;;;;5093650;28;20413;-67
2021/05/31 02:40:18;;;;;;;3.53;3.23;;;13.00;99.90;;;;;;5093690;28;20437;-68
2021/05/31 02:42:47;;;;;;;4.00;3.70;;;13.10;99.90;;;;;;5093684;28;20405;-67
2021/05/31 02:45:14;;;;;;;3.83;3.43;;;13.10;99.90;;;;;;5093556;28;20431;-66
2021/05/31 02:47:39;;;;;;;3.60;3.30;;;13.00;99.90;;;;;;5092379;28;20436;-66
2021/05/31 02:50:06;;;;;;;4.70;3.80;;;13.10;99.90;;;;;;5093367;28;20405;-66
2021/05/31 02:52:31;;;;;;;3.73;3.37;;;13.00;99.90;;;;;;5093367;28;20214;-67
2021/05/31 02:54:57;;;;;;;4.90;4.40;;;13.00;99.90;;;;;;5093533;28;20417;-68
2021/05/31 02:57:23;;;;;;;4.13;3.73;;;13.10;99.90;;;;;;5092527;28;20535;-67
2021/05/31 02:59:48;;;;;;;4.07;3.67;;;13.20;99.90;;;;;;5093488;28;20169;-68
2021/05/31 03:02:14;;;;;;;3.63;3.33;;;13.20;99.90;;;;;;5093443;28;20235;-69
2021/05/31 03:04:39;;;;;;;5.50;3.43;;;13.30;99.90;;;;;;5093720;28;20641;-68
2021/05/31 03:07:05;;;;;;;5.53;4.30;;;13.30;99.90;;;;;;5093779;28;20197;-68
2021/05/31 03:09:31;;;;;;;4.20;3.80;;;13.30;99.90;;;;;;5092220;28;20588;-67
2021/05/31 03:11:56;;;;;;;4.10;3.70;;;13.20;99.90;;;;;;5091804;28;20267;-68
2021/05/31 03:14:22;;;;;;;4.10;3.70;;;13.30;99.90;;;;;;5093400;28;20173;-67
2021/05/31 03:16:48;;;;;;;4.30;3.90;;;13.30;99.90;;;;;;5093216;28;20193;-67
2021/05/31 03:19:13;;;;;;;4.03;3.63;;;13.20;99.90;;;;;;5092115;28;20184;-69
2021/05/31 03:21:39;;;;;;;4.90;3.77;;;13.20;99.90;;;;;;5093667;28;20204;-66
2021/05/31 03:24:05;;;;;;;3.57;3.27;;;13.20;99.90;;;;;;5092038;28;20231;-68
2021/05/31 03:26:30;;;;;;;4.70;3.27;;;13.20;99.90;;;;;;5093611;28;20325;-66
2021/05/31 03:28:56;;;;;;;5.00;3.60;;;13.20;99.90;;;;;;5092002;28;20645;-67
2021/05/31 03:31:21;;;;;;;3.80;3.37;;;13.20;99.90;;;;;;5093765;28;20192;-67
2021/05/31 03:33:47;;;;;;;4.10;3.63;;;13.20;99.90;;;;;;5096807;28;20251;-67
2021/05/31 03:36:13;;;;;;;4.37;3.97;;;13.10;99.90;;;;;;5095619;28;20600;-68
2021/05/31 03:38:38;;;;;;;4.60;4.20;;;13.10;99.90;;;;;;5096921;28;20258;-67
2021/05/31 03:41:04;;;;;;;3.80;3.50;;;13.10;99.90;;;;;;5096907;28;20669;-66
2021/05/31 03:43:29;;;;;;;3.50;3.13;;;13.20;99.90;;;;;;5096795;28;20650;-68
2021/05/31 03:45:55;;;;;;;4.20;3.77;;;13.10;99.90;;;;;;5095425;28;20299;-68
2021/05/31 03:48:21;;;;;;;3.57;3.30;;;13.10;99.90;;;;;;5096762;28;20209;-68
2021/05/31 03:50:46;;;;;;;4.27;3.60;;;13.00;99.90;;;;;;5095357;28;20298;-68
2021/05/31 03:53:12;;;;;;;4.70;3.27;;;13.10;99.90;;;;;;5096406;28;20677;-67
2021/05/31 03:55:37;;;;;;;3.70;3.40;;;13.10;99.90;;;;;;5096565;28;20746;-66
2021/05/31 03:58:03;;;;;;;4.47;4.07;;;13.10;99.90;;;;;;5096401;28;20181;-69
2021/05/31 04:00:29;;;;;;;4.83;4.20;;;13.10;99.90;;;;;;5096399;28;20205;-70
2021/05/31 04:02:55;;;;;;;3.77;3.40;;;13.10;99.90;;;;;;5096322;28;20233;-67
2021/05/31 04:05:22;;;;;;;3.90;3.50;;;13.20;99.90;;;;;;5095060;28;20199;-68
2021/05/31 04:13:18;;;;;;;3.97;3.57;;;13.20;99.90;;;;;;5094453;28;21053;-69
2021/05/31 04:15:44;;;;;;;4.17;3.77;;;13.20;99.90;;;;;;5096104;28;20535;-67
2021/05/31 04:18:09;;;;;;;4.20;3.80;;;13.20;99.90;;;;;;5096111;28;20462;-68
2021/05/31 04:20:35;;;;;;;3.67;3.13;;;13.20;99.90;;;;;;5095913;28;20464;-66
2021/05/31 04:23:01;;;;;;;3.33;3.03;;;13.30;99.90;;;;;;5095977;28;20164;-67
2021/05/31 04:25:27;;;;;;;4.03;3.60;;;13.20;99.90;;;;;;5096028;28;20777;-66
2021/05/31 04:27:52;;;;;;;3.67;3.37;;;13.30;99.90;;;;;;5094587;28;20172;-68
2021/05/31 04:30:19;;;;;;;3.63;2.67;;;13.20;99.90;;;;;;5095884;28;20197;-66
2021/05/31 04:32:44;;;;;;;3.67;3.27;;;13.20;99.90;;;;;;5095673;28;20204;-67
2021/05/31 04:35:10;;;;;;;4.67;3.60;;;13.10;99.90;;;;;;5094289;28;20428;-69
2021/05/31 04:37:36;;;;;;;3.03;2.77;;;13.20;99.90;;;;;;5094399;28;20183;-67
2021/05/31 04:40:05;;;;;;;3.93;3.37;;;13.20;99.90;;;;;;5095419;28;20397;-66
2021/05/31 04:42:30;;;;;;;4.03;3.50;;;13.20;99.90;;;;;;5095218;28;20172;-66
2021/05/31 04:44:56;;;;;;;5.33;3.53;;;13.20;99.90;;;;;;5095463;28;20454;-68
2021/05/31 04:47:21;;;;;;;3.23;2.93;;;13.30;99.90;;;;;;5094252;28;20176;-69
2021/05/31 04:49:47;;;;;;;3.10;2.90;;;13.20;99.90;;;;;;5094662;28;20594;-67
2021/05/31 04:52:13;;;;;;;4.13;3.60;;;13.20;99.90;;;;;;5093593;28;20272;-66
2021/05/31 04:54:57;;;;;;;3.10;2.80;;;13.20;99.90;;;;;;5094095;28;20180;-67
2021/05/31 04:57:23;;;;;;;3.40;2.60;;;13.10;99.90;;;;;;5094881;28;20184;-68
2021/05/31 04:59:48;;;;;;;3.63;3.33;;;13.10;99.90;;;;;;5094765;28;20921;-69
2021/05/31 05:02:14;;;;;;;2.83;2.60;;;13.10;99.90;;;;;;5095450;28;20677;-68
2021/05/31 05:04:40;;;;;;;3.33;3.00;;;13.10;99.90;;;;;;5093910;28;20668;-69
2021/05/31 05:07:06;;;;;;;5.60;3.20;;;13.10;99.90;;;;;;5094782;28;20212;-68
2021/05/31 05:09:31;;;;;;;3.43;2.77;;;13.10;99.90;;;;;;5093458;28;20419;-67
2021/05/31 05:11:57;;;;;;;2.93;2.73;;;13.10;99.90;;;;;;5092179;28;20224;-66
2021/05/31 05:14:22;;;;;;;4.93;2.90;;;13.50;99.90;;;;;;5088841;28;20180;-69
2021/05/31 05:16:49;;;;;;;3.77;3.30;;;13.90;99.90;;;;;;5092487;28;20680;-69
2021/05/31 05:19:14;;;;;;;3.80;3.40;;;14.20;99.90;;;;;;5090460;28;20702;-65
2021/05/31 05:21:41;;;;;;;3.60;2.93;;;14.20;99.90;;;;;;5092587;28;20464;-68
2021/05/31 05:24:07;;;;;;;5.50;3.43;;;14.10;99.90;;;;;;5090870;28;20200;-65
2021/05/31 05:26:33;;;;;;;3.27;2.93;;;14.30;99.90;;;;;;5091625;28;20453;-67
2021/05/31 05:28:58;;;;;;;4.00;3.07;;;14.30;99.90;;;;;;5093373;28;20427;-65
2021/05/31 05:31:25;;;;;;;4.50;3.30;;;14.50;99.90;;;;;;5093307;28;20200;-67
2021/05/31 05:33:50;;;;;;;5.53;3.60;;;14.70;99.90;;;;;;5090411;28;20204;-67
2021/05/31 05:39:50;;;;;;;3.20;2.90;;;14.80;99.90;;;;;;5090649;28;20188;-67
2021/05/31 05:43:04;;;;;;;2.77;2.57;;;15.10;99.90;;;;;;5093342;28;20539;-67
2021/05/31 05:47:50;;;;;;;3.42;3.13;;;14.90;99.90;;;;;;5082481;28;20256;-64
2021/05/31 05:50:21;;;;;;;5.23;3.30;;;14.90;99.90;;;;;;5090568;28;20657;-65
2021/05/31 05:52:47;;;;;;;4.00;3.60;;;14.80;99.90;;;;;;5091712;28;20645;-64
2021/05/31 05:55:14;;;;;;;3.60;3.30;;;14.70;99.90;;;;;;5089746;28;20514;-66
2021/05/31 05:57:41;;;;;;;6.10;3.70;;;14.90;99.90;;;;;;5091389;28;20421;-67
2021/05/31 06:00:11;;;;;;;4.03;3.50;;;15.10;99.90;;;;;;5092745;28;20535;-65
2021/05/31 06:02:36;;;;;;;3.55;3.05;;;14.80;99.90;;;;;;5091421;28;20442;-64
2021/05/31 06:05:03;;;;;;;3.30;3.00;;;15.00;99.90;;;;;;5091371;28;20217;-65
2021/05/31 06:07:29;;;;;;;3.00;2.70;;;15.10;99.90;;;;;;5092224;28;20195;-69
2021/05/31 06:09:55;;;;;;;3.43;2.80;;;15.30;99.90;;;;;;5090720;28;20946;-68
2021/05/31 06:12:20;;;;;;;3.03;2.83;;;15.30;99.90;;;;;;5091497;28;20558;-64
2021/05/31 06:14:47;;;;;;;2.77;2.40;;;15.50;99.90;;;;;;5091001;28;20228;-63
2021/05/31 06:17:13;;;;;;;3.30;3.00;;;15.70;99.90;;;;;;5091820;28;20491;-67
2021/05/31 06:19:38;;;;;;;3.33;2.37;;;15.70;99.90;;;;;;5088661;28;20581;-68
2021/05/31 06:22:05;;;;;;;4.17;3.30;;;15.70;99.90;;;;;;5090807;28;20197;-64
2021/05/31 06:24:31;;;;;;;2.90;2.70;;;15.70;99.90;;;;;;5089062;28;20197;-66
2021/05/31 06:26:57;;;;;;;3.10;2.80;;;15.70;99.90;;;;;;5091921;28;20991;-68
2021/05/31 06:29:22;;;;;;;3.37;2.80;;;15.70;99.90;;;;;;5092252;28;20208;-69
2021/05/31 06:31:48;;;;;;;3.60;3.30;;;15.70;99.90;;;;;;5093385;28;20439;-64
2021/05/31 06:34:13;;;;;;;3.77;2.63;;;15.60;99.90;;;;;;5092634;28;20224;-67
2021/05/31 06:36:41;;;;;;;6.00;2.73;;;15.70;99.90;;;;;;5091618;28;20212;-64
2021/05/31 06:39:10;;;;;;;2.63;2.43;;;15.70;99.90;;;;;;5090336;28;20188;-67
2021/05/31 06:41:36;;;;;;;5.23;2.60;;;15.70;99.90;;;;;;5092620;28;20448;-64
2021/05/31 06:44:03;;;;;;;3.47;3.17;;;15.70;99.90;;;;;;5091385;28;20947;-69
2021/05/31 06:46:29;;;;;;;2.53;2.33;;;15.70;99.90;;;;;;5092631;28;20479;-65
2021/05/31 06:48:54;;;;;;;2.60;2.40;;;15.80;99.90;;;;;;5093109;28;20421;-66
2021/05/31 06:51:20;;;;;;;2.70;2.50;;;15.90;99.90;;;;;;5091828;28;20199;-65
2021/05/31 06:53:46;;;;;;;3.20;2.90;;;15.90;99.90;;;;;;5089220;28;20216;-65
2021/05/31 06:56:11;;;;;;;3.27;2.90;;;15.90;99.90;;;;;;5090748;28;20710;-68
2021/05/31 06:58:37;;;;;;;3.40;3.10;;;16.00;99.90;;;;;;5090815;28;20211;-67
2021/05/31 07:01:03;;;;;;;3.57;3.30;;;15.90;99.90;;;;;;5089886;28;20200;-69
2021/05/31 07:03:29;;;;;;;3.23;2.90;;;16.00;99.90;;;;;;5090448;28;20188;-68
2021/05/31 07:05:54;;;;;;;3.60;3.30;;;16.10;99.90;;;;;;5092985;28;20540;-65
2021/05/31 07:08:25;;;;;;;3.50;3.20;;;16.20;99.90;;;;;;5095237;28;20192;-65
2021/05/31 07:10:52;;;;;;;3.97;3.20;;;16.30;99.90;;;;;;5096412;28;20219;-65
2021/05/31 07:13:20;;;;;;;4.83;3.60;;;16.40;99.90;;;;;;5095840;28;20472;-69
2021/05/31 07:15:49;;;;;;;4.00;3.53;;;16.40;99.90;;;;;;5092877;28;20463;-65
2021/05/31 07:18:19;;;;;;;6.80;3.93;;;16.00;99.90;;;;;;5094485;28;20421;-65
2021/05/31 07:20:46;;;;;;;4.17;3.63;;;16.20;99.90;;;;;;5094203;28;20582;-65
2021/05/31 07:23:12;;;;;;;4.13;3.73;;;16.40;99.90;;;;;;5093042;28;20421;-65
2021/05/31 07:25:37;;;;;;;4.53;4.10;;;16.40;99.90;;;;;;5095713;28;20856;-65
2021/05/31 07:28:03;;;;;;;3.67;3.37;;;16.50;99.90;;;;;;5094723;28;20188;-66
2021/05/31 07:30:29;;;;;;;4.23;3.93;;;16.60;99.90;;;;;;5095065;28;20661;-68
2021/05/31 07:32:55;;;;;;;4.97;3.70;;;16.80;99.90;;;;;;5094998;28;20984;-67
2021/05/31 07:35:20;;;;;;;4.23;3.83;;;16.80;99.90;;;;;;5095317;28;20709;-67
2021/05/31 07:37:46;;;;;;;3.40;3.10;;;16.50;99.90;;;;;;5090207;28;20180;-68
2021/05/31 07:40:14;;;;;;;3.97;3.53;;;16.80;99.90;;;;;;5094539;28;20798;-68
2021/05/31 07:42:40;;;;;;;3.43;3.13;;;16.80;99.90;;;;;;5094107;28;20187;-69
2021/05/31 07:45:08;;;;;;;3.70;3.30;;;16.90;99.90;;;;;;5092581;28;20451;-64
2021/05/31 07:47:34;;;;;;;3.53;3.23;;;17.00;99.90;;;;;;5092060;28;20981;-65
2021/05/31 07:49:59;;;;;;;3.90;3.60;;;17.00;99.90;;;;;;5094415;28;20441;-67
2021/05/31 07:52:27;;;;;;;3.33;3.03;;;17.10;99.90;;;;;;5094338;28;20865;-67
2021/05/31 07:54:53;;;;;;;3.80;3.50;;;16.90;99.90;;;;;;5091698;28;20231;-65
2021/05/31 07:57:21;;;;;;;7.83;3.30;;;17.00;99.90;;;;;;5093863;28;20919;-66
2021/05/31 07:59:49;;;;;;;3.67;3.37;;;17.10;99.90;;;;;;5092827;28;20975;-65
2021/05/31 08:02:15;;;;;;;3.87;3.03;;;17.10;99.90;;;;;;5110419;27;20533;-64
2021/05/31 08:04:41;;;;;;;6.23;3.27;;;17.10;99.90;;;;;;5089632;28;20444;-69
2021/05/31 08:07:09;;;;;;;3.57;3.27;;;17.20;99.90;;;;;;5092645;28;20444;-64
2021/05/31 08:09:35;;;;;;;3.73;3.27;;;17.30;99.90;;;;;;5092160;28;20184;-64
2021/05/31 08:12:01;;;;;;;3.40;3.10;;;17.40;99.90;;;;;;5092034;28;20898;-65
2021/05/31 08:14:26;;;;;;;3.10;2.87;;;17.50;99.90;;;;;;5095221;28;20464;-66
2021/05/31 08:16:53;;;;;;;3.90;3.53;;;17.50;99.90;;;;;;5094190;28;20196;-70
2021/05/31 08:19:23;;;;;;;3.00;2.80;;;17.60;99.90;;;;;;5092239;28;20172;-66
2021/05/31 08:21:50;;;;;;;3.23;2.93;;;17.60;99.90;;;;;;5090811;28;20797;-68
2021/05/31 08:24:18;;;;;;;4.93;3.60;;;17.70;99.90;;;;;;5093557;28;20416;-66
2021/05/31 08:26:43;;;;;;;3.60;3.30;;;17.80;99.90;;;;;;5088699;28;20448;-66
2021/05/31 08:29:10;;;;;;;2.77;2.57;;;17.80;99.90;;;;;;5094345;28;20898;-64
2021/05/31 08:31:35;;;;;;;3.37;3.07;;;17.80;99.90;;;;;;5088988;28;20749;-64
2021/05/31 08:34:01;;;;;;;4.17;3.10;;;17.80;99.90;;;;;;5091203;28;20540;-70
2021/05/31 08:36:27;;;;;;;3.50;3.20;;;17.90;99.90;;;;;;5091950;28;20235;-71
2021/05/31 08:38:58;;;;;;;5.00;3.20;;;17.90;99.90;;;;;;5090476;28;20188;-69
2021/05/31 08:41:30;;;;;;;3.50;3.23;;;18.00;99.90;;;;;;5092238;28;20300;-68
2021/05/31 08:43:56;;;;;;;3.90;3.60;;;18.10;99.90;;;;;;5091581;28;20478;-66
2021/05/31 08:46:22;;;;;;;3.53;3.23;;;18.10;99.90;;;;;;5088317;28;20543;-65
2021/05/31 08:48:47;;;;;;;3.80;3.00;;;18.20;99.90;;;;;;5088432;28;20511;-65
2021/05/31 08:51:13;;;;;;;3.80;3.40;;;18.20;99.90;;;;;;5090479;28;20835;-65
2021/05/31 08:53:43;;;;;;;3.40;3.10;;;17.60;99.90;;;;;;5092315;28;20219;-69
2021/05/31 08:56:09;;;;;;;3.67;3.37;;;18.00;99.90;;;;;;5090839;28;20452;-64
2021/05/31 08:58:35;;;;;;;3.60;3.30;;;18.20;99.90;;;;;;5092622;28;20429;-68
2021/05/31 09:01:01;;;;;;;4.23;3.90;;;18.40;99.90;;;;;;5094293;28;20232;-68
2021/05/31 09:03:26;;;;;;;3.70;3.33;;;18.50;99.90;;;;;;5081811;28;20468;-66
2021/05/31 09:06:02;;;;;;;3.97;3.57;;;18.60;99.90;;;;;;5092605;28;20246;-65
2021/05/31 09:08:28;;;;;;;3.80;2.83;;;18.50;99.90;;;;;;5094274;28;20192;-70
2021/05/31 09:10:59;;;;;;;4.20;3.90;;;18.40;99.90;;;;;;5094271;28;20961;-66
2021/05/31 09:13:28;;;;;;;4.40;3.80;;;18.00;99.90;;;;;;5093795;28;20457;-65
2021/05/31 09:16:10;;;;;;;4.37;3.97;;;17.60;99.90;;;;;;5092043;28;20452;-68
2021/05/31 09:18:38;;;;;;;5.20;4.57;;;17.20;99.90;;;;;;5091521;28;20454;-68
2021/05/31 09:21:24;;;;;;;4.20;3.80;;;16.90;99.90;;;;;;5092366;28;20445;-68
2021/05/31 09:23:56;;;;;;;4.53;4.07;;;16.80;99.90;;;;;;5092615;28;20458;-68
2021/05/31 09:26:26;;;;;;;8.10;4.60;;;17.20;99.90;;;;;;5089582;28;20494;-64
2021/05/31 09:29:06;;;;;;;5.93;4.80;;;17.40;99.90;;;;;;5089286;28;20509;-64
2021/05/31 09:31:32;;;;;;;5.40;4.90;;;17.00;99.90;;;;;;5085034;28;20610;-68
2021/05/31 09:34:02;;;;;;;5.17;4.67;;;17.20;99.90;;;;;;5092424;28;20543;-69
2021/05/31 09:36:28;;;;;;;5.23;4.50;;;17.70;99.90;;;;;;5091677;28;20211;-69
2021/05/31 09:38:54;;;;;;;4.13;3.73;;;18.00;99.90;;;;;;5092750;28;20417;-66
2021/05/31 09:41:29;;;;;;;4.30;3.90;;;17.90;99.90;;;;;;5089843;28;20460;-65
2021/05/31 09:43:57;;;;;;;4.20;3.80;;;17.90;99.90;;;;;;5089672;28;20436;-65
2021/05/31 09:46:44;;;;;;;6.20;4.20;;;17.70;99.90;;;;;;5086369;28;20454;-65
2021/05/31 09:49:14;;;;;;;4.73;4.13;;;17.80;99.90;;;;;;5085197;28;20443;-68
2021/05/31 09:52:10;;;;;;;5.13;4.63;;;17.40;99.90;;;;;;5085167;28;20969;-68
2021/05/31 09:54:46;;;;;;;5.97;5.10;;;17.40;99.90;;;;;;5084351;28;20417;-65
2021/05/31 09:57:27;;;;;;;5.27;4.77;;;17.80;99.90;;;;;;5072306;28;20837;-69
2021/05/31 09:59:58;;;;;;;5.80;5.30;;;18.40;99.90;;;;;;5075452;28;20429;-69
2021/05/31 10:02:43;;;;;;;5.53;5.03;;;18.60;99.90;;;;;;5084880;28;20840;-69
2021/05/31 10:10:06;;;;;;;5.63;5.00;;;19.00;99.90;;;;;;5088896;28;20474;-66
2021/05/31 10:12:33;;;;;;;6.10;5.50;;;18.80;99.90;;;;;;5086999;28;20468;-68
2021/05/31 10:15:00;;;;;;;5.97;4.90;;;18.50;99.90;;;;;;5091779;28;20503;-64
2021/05/31 10:17:26;;;;;;;6.23;5.63;;;18.50;99.90;;;;;;5088757;28;20440;-69
2021/05/31 10:19:51;;;;;;;5.07;4.57;;;18.60;99.90;;;;;;5071476;28;21239;-68
2021/05/31 10:22:18;;;;;;;4.67;4.27;;;18.60;99.90;;;;;;5089719;28;20444;-65
2021/05/31 10:24:44;;;;;;;6.40;5.80;;;18.70;99.90;;;;;;5087035;28;20189;-68
2021/05/31 10:27:13;;;;;;;3.90;3.57;;;18.60;99.90;;;;;;5081432;28;20454;-65
2021/05/31 10:29:43;;;;;;;4.73;3.97;;;18.60;99.90;;;;;;5080792;28;20425;-65
2021/05/31 10:32:10;;;;;;;5.10;4.60;;;18.60;99.90;;;;;;5087194;28;20807;-65
2021/05/31 10:34:50;;;;;;;5.17;4.67;;;18.70;99.90;;;;;;5089272;28;20859;-65
2021/05/31 10:37:30;;;;;;;4.37;3.97;;;18.70;99.90;;;;;;5088180;28;20503;-68
2021/05/31 10:40:11;;;;;;;5.30;4.80;;;18.80;99.90;;;;;;5085967;28;20902;-69
2021/05/31 10:42:55;;;;;;;5.70;5.20;;;18.90;99.90;;;;;;5094598;28;20479;-68
2021/05/31 10:45:26;;;;;;;4.40;4.00;;;19.20;99.90;;;;;;5089878;28;20428;-64
2021/05/31 10:48:10;;;;;;;4.60;4.20;;;19.50;99.90;;;;;;5090743;28;20941;-65
2021/05/31 10:50:41;;;;;;;4.47;4.07;;;19.70;99.90;;;;;;5087714;28;20469;-66
2021/05/31 10:53:31;;;;;;;3.40;3.20;;;20.00;99.90;;;;;;5092822;28;20472;-69
2021/05/31 10:56:00;;;;;;;3.37;3.10;;;20.10;99.90;;;;;;5095990;28;20904;-65
2021/05/31 10:58:39;;;;;;;3.90;3.50;;;20.20;99.90;;;;;;5091158;28;20424;-70
2021/05/31 11:01:11;;;;;;;2.90;2.70;;;20.30;99.90;;;;;;5082172;28;20463;-69
2021/05/31 11:04:00;;;;;;;3.37;3.07;;;20.40;99.90;;;;;;5088543;28;20828;-68
2021/05/31 11:06:28;;;;;;;2.83;2.63;;;20.30;99.90;;;;;;5099675;27;20461;-65
2021/05/31 11:09:08;;;;;;;2.77;2.57;;;20.20;99.90;;;;;;5090792;28;20420;-65
2021/05/31 11:11:53;;;;;;;3.00;2.70;;;20.20;99.90;;;;;;5092324;28;20996;-65
2021/05/31 11:14:37;;;;;;;2.50;2.30;;;20.20;99.90;;;;;;5088767;28;20826;-65
2021/05/31 11:17:16;;;;;;;2.70;2.50;;;20.30;99.90;;;;;;5090884;28;20453;-65
2021/05/31 11:19:46;;;;;;;2.40;2.20;;;20.50;99.90;;;;;;5087042;28;20511;-68
2021/05/31 11:22:15;;;;;;;3.03;2.67;;;20.50;99.90;;;;;;5088440;28;20460;-68
2021/05/31 11:24:41;;;;;;;3.00;2.80;;;20.60;99.90;;;;;;5089341;28;20456;-69
2021/05/31 11:27:10;;;;;;;2.53;2.33;;;20.80;99.90;;;;;;5081393;28;20809;-70
2021/05/31 11:29:36;;;;;;;2.10;1.90;;;20.90;99.90;;;;;;5070523;28;20937;-69
2021/05/31 11:32:02;;;;;;;2.40;2.20;;;21.10;99.90;;;;;;5075045;28;20460;-67
2021/05/31 11:34:29;;;;;;;2.13;1.93;;;21.20;99.90;;;;;;5073197;28;20816;-67
2021/05/31 11:36:57;;;;;;;2.70;1.97;;;21.30;99.90;;;;;;5086816;28;20555;-69
2021/05/31 11:39:23;;;;;;;2.30;2.10;;;21.40;99.90;;;;;;5091636;28;20500;-69
2021/05/31 11:41:51;;;;;;;2.73;1.80;;;21.50;99.90;;;;;;5087848;28;20475;-68
2021/05/31 11:44:20;;;;;;;2.37;2.07;;;21.60;99.90;;;;;;5085482;28;20415;-69
2021/05/31 11:46:48;;;;;;;5.40;2.10;;;21.70;99.90;;;;;;5083028;28;20718;-69
2021/05/31 11:49:14;;;;;;;1.90;1.80;;;21.80;99.90;;;;;;5090298;28;20431;-69
2021/05/31 11:51:40;;;;;;;3.07;2.23;;;21.80;99.90;;;;;;5087191;28;20510;-69
2021/05/31 11:54:06;;;;;;;2.00;1.90;;;22.00;99.90;;;;;;5090009;28;20498;-68
2021/05/31 11:56:36;;;;;;;2.07;1.90;;;21.70;99.90;;;;;;5082052;28;20229;-64
2021/05/31 11:59:02;;;;;;;2.63;2.50;;;21.80;99.90;;;;;;5092722;28;20840;-70
2021/05/31 12:01:29;;;;;;;3.53;2.70;;;21.90;99.90;;;;;;5093031;28;20489;-66
2021/05/31 12:03:56;;;;;;;2.60;2.40;;;21.40;99.90;;;;;;5092235;28;20501;-69
2021/05/31 12:06:22;;;;;;;3.53;2.97;;;21.70;99.90;;;;;;5089002;28;20484;-66
2021/05/31 12:08:49;;;;;;;4.63;2.77;;;21.90;99.90;;;;;;5091044;28;20857;-66
2021/05/31 12:11:39;;;;;;;3.00;2.70;;;22.20;99.90;;;;;;5087872;28;20244;-69
2021/05/31 12:14:05;;;;;;;3.00;2.73;;;22.30;99.90;;;;;;5086878;28;20474;-69
2021/05/31 12:16:30;;;;;;;3.07;2.60;;;22.20;99.90;;;;;;5076625;28;20967;-69
2021/05/31 12:18:56;;;;;;;3.77;2.50;;;22.30;99.90;;;;;;5088248;28;20202;-68
2021/05/31 12:21:22;;;;;;;3.03;2.83;;;22.60;99.90;;;;;;5065970;28;20219;-66
2021/05/31 12:23:51;;;;;;;2.70;2.50;;;22.40;99.90;;;;;;5089865;28;20184;-68
2021/05/31 12:26:23;;;;;;;2.90;2.23;;;22.20;99.90;;;;;;5084688;28;20198;-70
2021/05/31 12:28:51;;;;;;;2.73;2.53;;;22.30;99.90;;;;;;5073157;28;20436;-70
2021/05/31 12:31:18;;;;;;;3.40;2.63;;;22.50;99.90;;;;;;5074582;28;20463;-69
2021/05/31 12:33:44;;;;;;;2.60;2.40;;;22.50;99.90;;;;;;5080893;28;20603;-70
2021/05/31 12:36:10;;;;;;;2.70;2.50;;;22.70;99.90;;;;;;5072280;28;20559;-71
2021/05/31 12:38:39;;;;;;;2.40;2.20;;;22.90;99.90;;;;;;5092297;28;20186;-67
2021/05/31 12:41:06;;;;;;;3.20;3.00;;;22.90;99.90;;;;;;5088804;28;20567;-67
2021/05/31 12:43:33;;;;;;;3.47;3.17;;;22.90;99.90;;;;;;5084239;28;20504;-68
2021/05/31 12:46:00;;;;;;;3.97;2.90;;;23.10;99.90;;;;;;5081760;28;20903;-66
2021/05/31 12:48:26;;;;;;;2.87;2.67;;;23.00;99.90;;;;;;5089880;28;20428;-70
2021/05/31 12:50:55;;;;;;;3.10;2.57;;;23.00;99.90;;;;;;5077768;28;20501;-68
2021/05/31 12:53:22;;;;;;;2.60;2.40;;;23.20;99.90;;;;;;5087428;28;20467;-65
2021/05/31 12:55:49;;;;;;;2.40;2.20;;;23.20;99.90;;;;;;5090875;28;20550;-65
2021/05/31 12:58:14;;;;;;;3.07;2.87;;;23.30;99.90;;;;;;5085194;28;20532;-70
2021/05/31 13:00:42;;;;;;;2.80;2.60;;;23.10;99.90;;;;;;5077704;28;20930;-71
2021/05/31 13:03:08;;;;;;;3.23;3.00;;;23.10;99.90;;;;;;5088840;28;20191;-71
2021/05/31 13:05:37;;;;;;;3.83;2.80;;;22.60;99.90;;;;;;5090857;28;20459;-70
2021/05/31 13:08:08;;;;;;;2.90;2.70;;;22.30;99.90;;;;;;5089909;28;20450;-66
2021/05/31 13:10:36;;;;;;;3.03;2.83;;;22.50;99.90;;;;;;5086670;28;20505;-71
2021/05/31 13:13:31;;;;;;;2.70;2.60;;;22.60;99.90;;;;;;5083936;28;21013;-69